Terminal Aerodrome Forecast
Issued by NWS

Home | Current Version | Previous Version | Text Only | Print | Product List | Glossary On
Versions: 1 2 3 4 5 6 7 8 9 10 11 12 13 14 15 16 17 18 19 20 21 22 23 24 25 26 27 28 29 30
000
FTUS41 KBOX 202016 AAA
TAFACK
TAF AMD
KACK 202016Z 2020/2118 06008KT P6SM SKC
     FM210300 05008KT P6SM BKN050
     FM210600 04012KT P6SM -RA SCT025 OVC040
     FM211300 04015KT P6SM OVC035=

USA.gov is the U.S. government's official web portal to all federal, state and local government web resources and services.